Terminal Aerodrome Forecast
Issued by NWS

Home | Current Version | Previous Version | Text Only | Print | Product List | Glossary On
Versions: 1 2 3 4 5 6 7 8 9 10 11 12 13 14 15 16 17 18 19 20 21 22 23
000
FTUS46 KLOX 201138
TAFSBA
TAF
KSBA 201138Z 2012/2112 11012KT 2SM RA BR SCT006 BKN020 OVC035
      TEMPO 2012/2015 6SM BR BKN007 BKN011
     FM201500 10012KT 6SM -RA BR OVC015
     FM201800 10015G20KT 4SM RA BR OVC008
     FM202300 VRB05KT 6SM -RA BR OVC007
     FM210500 VRB05KT 6SM -RA BR OVC015
     FM211000 VRB05KT 6SM -RA BR OVC015=

USA.gov is the U.S. government's official web portal to all federal, state and local government web resources and services.